Select Airport:
Chesapeake Regional Airport
Last updated: 10 minutes ago
Flight conditions: VFR
Visibility: 7.0 statute miles
Sky Conditions: Clear
Wind From: 10°
Wind speed: 7 knots (8.05 mph)
Temperature: 10.8°C (51.44°F)
Dew Point: 1.8°C (35.24°F)
Altimiter setting: 30.06 in-hg
WX phone: 1-757-204-4290
WX freq: 123.675 MHz
Runway 5
   Crosswind component: 4.5 knots (5.17 mph)
   Headwind component: 5.36 knots (6.17 mph)
KCPK 222335Z AUTO 01007KT 7SM CLR 11/02 A3006 RMK AO2 T01080018
FOR REFERENCE USE ONLY, DATA MAY NOT BE CURRENT.
ALWAYS CHECK FOR UP TO DATE INFORMATION.